createdAt,value
2022-09-26T00:01:38.241Z,5.60
2022-09-26T00:04:13.233Z,5.90
2022-09-26T00:06:40.060Z,4.20
2022-09-26T00:09:06.893Z,5.10
2022-09-26T00:11:35.146Z,6.70
2022-09-26T00:14:12.718Z,5.60
2022-09-26T00:16:39.647Z,5.50
2022-09-26T00:19:07.657Z,3.20
2022-09-26T00:21:35.470Z,4.90
2022-09-26T00:24:04.504Z,4.20
2022-09-26T00:26:34.749Z,7.30
2022-09-26T00:29:07.629Z,7.20
2022-09-26T00:31:39.935Z,6.00
2022-09-26T00:34:07.339Z,4.80
2022-09-26T00:36:38.414Z,4.30
2022-09-26T00:39:12.800Z,5.50
2022-09-26T00:41:40.041Z,7.20
2022-09-26T00:44:34.838Z,5.20
2022-09-26T00:47:02.772Z,5.90
2022-09-26T00:49:37.189Z,6.30
2022-09-26T00:52:37.728Z,5.90
2022-09-26T00:55:08.689Z,5.60
2022-09-26T00:57:45.656Z,6.70
2022-09-26T01:00:15.161Z,5.20
2022-09-26T01:02:45.374Z,7.20
2022-09-26T01:05:16.937Z,5.30
2022-09-26T01:07:45.316Z,6.80
2022-09-26T01:10:13.192Z,5.40
2022-09-26T01:12:39.925Z,7.80
2022-09-26T01:15:09.478Z,6.50
2022-09-26T01:17:39.838Z,7.00
2022-09-26T01:20:29.296Z,8.10
2022-09-26T01:23:32.603Z,7.90
2022-09-26T01:26:26.029Z,6.50
2022-09-26T01:29:49.588Z,9.40
2022-09-26T01:32:51.089Z,5.90
2022-09-26T01:35:59.600Z,7.60
2022-09-26T01:39:13.996Z,6.90
2022-09-26T01:42:01.613Z,6.90
2022-09-26T01:44:37.551Z,7.10
2022-09-26T01:47:27.707Z,7.50
2022-09-26T01:50:07.016Z,7.90
2022-09-26T01:52:55.573Z,3.70
2022-09-26T01:55:48.514Z,6.00
2022-09-26T01:58:24.365Z,7.10
2022-09-26T02:00:54.583Z,6.10
2022-09-26T02:03:27.887Z,4.90
2022-09-26T02:06:06.259Z,6.40
2022-09-26T02:08:37.731Z,8.00
2022-09-26T02:11:13.830Z,8.40
2022-09-26T02:14:29.271Z,6.10
2022-09-26T02:17:05.512Z,7.50
2022-09-26T02:19:46.363Z,6.10
2022-09-26T02:22:13.188Z,5.60
2022-09-26T02:24:40.316Z,6.00
2022-09-26T02:27:07.545Z,7.40
2022-09-26T02:29:34.745Z,10.60
2022-09-26T02:32:12.828Z,8.70
2022-09-26T02:34:47.972Z,8.30
2022-09-26T02:37:21.251Z,6.70
2022-09-26T02:39:51.151Z,7.50
2022-09-26T02:43:17.614Z,7.60
2022-09-26T02:46:19.351Z,7.70
2022-09-26T02:48:58.377Z,11.70
2022-09-26T02:51:54.354Z,8.70
2022-09-26T02:54:34.358Z,6.90
2022-09-26T02:57:11.281Z,9.90
2022-09-26T03:00:04.905Z,9.60
2022-09-26T03:03:13.927Z,10.90
2022-09-26T03:05:44.792Z,8.10
2022-09-26T03:08:23.279Z,8.90
2022-09-26T03:10:52.461Z,11.40
2022-09-26T03:13:20.609Z,9.30
2022-09-26T03:15:54.180Z,14.70
2022-09-26T03:18:31.245Z,12.20
2022-09-26T03:20:58.014Z,7.80
2022-09-26T03:23:27.382Z,9.20
2022-09-26T03:26:16.060Z,8.10
2022-09-26T03:28:56.229Z,9.90
2022-09-26T03:31:25.344Z,15.40
2022-09-26T03:33:59.057Z,8.20
2022-09-26T03:36:26.574Z,8.70
2022-09-26T03:38:53.279Z,8.10
2022-09-26T03:41:43.335Z,9.60
2022-09-26T03:44:25.532Z,10.70
2022-09-26T03:47:29.308Z,10.20
2022-09-26T03:49:56.263Z,10.50
2022-09-26T03:52:25.148Z,8.30
2022-09-26T03:54:53.386Z,9.80
2022-09-26T03:57:20.995Z,7.80
2022-09-26T03:59:52.237Z,10.60
2022-09-26T04:02:20.951Z,8.70
2022-09-26T04:04:49.849Z,13.10
2022-09-26T04:07:16.592Z,8.90
2022-09-26T04:09:43.316Z,11.30
2022-09-26T04:12:11.019Z,8.30
2022-09-26T04:14:39.518Z,8.00
2022-09-26T04:17:06.991Z,11.60
2022-09-26T04:19:37.751Z,8.40
2022-09-26T04:22:05.998Z,13.60
2022-09-26T04:24:32.978Z,11.20
2022-09-26T04:27:00.995Z,10.90
2022-09-26T04:29:29.295Z,11.00
2022-09-26T04:32:19.671Z,11.60
2022-09-26T04:35:05.861Z,12.80
2022-09-26T04:37:36.295Z,11.70
2022-09-26T04:40:04.777Z,11.00
2022-09-26T04:42:37.018Z,10.00
2022-09-26T04:45:05.931Z,13.30
2022-09-26T04:47:32.884Z,10.80
2022-09-26T04:50:35.210Z,10.90
2022-09-26T04:53:06.804Z,10.80
2022-09-26T04:55:36.741Z,13.20
2022-09-26T04:58:03.779Z,12.00
2022-09-26T05:00:30.720Z,9.60
2022-09-26T05:03:02.099Z,11.50
2022-09-26T05:05:35.179Z,12.40
2022-09-26T05:08:02.487Z,10.20
2022-09-26T05:10:29.243Z,8.90
2022-09-26T05:13:01.036Z,11.10
2022-09-26T05:15:28.772Z,10.80
2022-09-26T05:18:00.464Z,11.50
2022-09-26T05:20:32.262Z,11.70
2022-09-26T05:23:02.770Z,11.10
2022-09-26T05:25:57.999Z,9.80
2022-09-26T05:28:27.363Z,10.00
2022-09-26T05:30:54.497Z,9.10
2022-09-26T05:33:22.447Z,9.00
2022-09-26T05:35:53.427Z,10.70
2022-09-26T05:38:21.710Z,11.80
2022-09-26T05:40:57.112Z,11.30
2022-09-26T05:43:30.733Z,9.30
2022-09-26T05:46:00.380Z,10.60
2022-09-26T05:48:33.497Z,9.80
2022-09-26T05:51:17.198Z,11.00
2022-09-26T05:53:46.374Z,8.70
2022-09-26T05:56:19.110Z,9.00
2022-09-26T05:59:09.586Z,7.90
2022-09-26T06:01:55.685Z,10.80
2022-09-26T06:04:34.097Z,9.60
2022-09-26T06:07:20.842Z,9.60
2022-09-26T06:09:47.887Z,12.00
2022-09-26T06:12:39.435Z,9.30
2022-09-26T06:15:09.493Z,7.60
2022-09-26T06:17:36.512Z,8.90
2022-09-26T06:20:05.692Z,7.50
2022-09-26T06:22:43.949Z,7.00
2022-09-26T06:25:11.724Z,8.00
2022-09-26T06:27:39.103Z,9.50
2022-09-26T06:30:10.489Z,9.70
2022-09-26T06:32:39.351Z,9.20
2022-09-26T06:35:25.252Z,9.00
2022-09-26T06:38:05.816Z,6.80
2022-09-26T06:40:33.995Z,6.60
2022-09-26T06:43:01.259Z,7.10
2022-09-26T06:46:10.460Z,8.20
2022-09-26T06:48:55.674Z,6.50
2022-09-26T06:51:41.067Z,7.40
2022-09-26T06:54:08.321Z,5.40
2022-09-26T06:56:35.711Z,8.70
2022-09-26T06:59:03.860Z,7.60
2022-09-26T07:01:35.707Z,7.10
2022-09-26T07:04:10.418Z,8.20
2022-09-26T07:06:43.567Z,4.80
2022-09-26T07:09:12.653Z,6.20
2022-09-26T07:12:16.082Z,6.10
2022-09-26T07:14:45.757Z,7.40
2022-09-26T07:17:41.684Z,4.50
2022-09-26T07:20:12.802Z,8.50
2022-09-26T07:23:09.361Z,5.70
2022-09-26T07:25:39.876Z,5.80
2022-09-26T07:28:10.272Z,8.70
2022-09-26T07:30:46.566Z,5.70
2022-09-26T07:33:35.050Z,6.50
2022-09-26T07:36:06.878Z,7.40
2022-09-26T07:38:33.890Z,7.40
2022-09-26T07:41:01.337Z,6.30
2022-09-26T07:44:12.633Z,5.40
2022-09-26T07:46:36.648Z,5.90
2022-09-26T07:49:23.006Z,7.90
2022-09-26T07:51:57.547Z,8.30
2022-09-26T07:54:35.245Z,7.00
2022-09-26T07:57:20.807Z,7.10
2022-09-26T08:00:09.000Z,8.30
2022-09-26T08:02:47.178Z,7.10
2022-09-26T08:05:21.190Z,6.50
2022-09-26T08:07:49.813Z,6.90
2022-09-26T08:10:35.916Z,6.40
2022-09-26T08:13:21.546Z,5.00
2022-09-26T08:16:06.017Z,6.30
2022-09-26T08:18:38.089Z,5.90
2022-09-26T08:21:07.294Z,6.70
2022-09-26T08:23:35.450Z,6.90
2022-09-26T08:26:25.356Z,7.00
2022-09-26T08:28:59.980Z,7.20
2022-09-26T08:31:30.326Z,7.80
2022-09-26T08:33:58.300Z,8.20
2022-09-26T08:36:25.449Z,8.60
2022-09-26T08:39:06.831Z,5.90
2022-09-26T08:41:59.102Z,5.70
2022-09-26T08:46:09.933Z,7.90
2022-09-26T08:49:23.292Z,5.80
2022-09-26T08:51:55.762Z,4.60
2022-09-26T08:54:32.071Z,6.40
2022-09-26T08:57:21.653Z,5.90
2022-09-26T08:59:50.839Z,4.20
2022-09-26T09:02:42.522Z,7.70
2022-09-26T09:05:30.300Z,5.50
2022-09-26T09:08:01.431Z,6.40
2022-09-26T09:11:08.762Z,8.60
2022-09-26T09:14:00.316Z,7.50
2022-09-26T09:17:52.454Z,8.90
2022-09-26T09:21:02.073Z,5.60
2022-09-26T09:23:53.065Z,5.60
2022-09-26T09:30:17.623Z,6.50
2022-09-26T09:32:59.513Z,5.90
2022-09-26T09:36:08.917Z,7.30
2022-09-26T09:38:47.323Z,6.00
2022-09-26T09:41:51.013Z,7.40
2022-09-26T09:44:33.568Z,6.70
2022-09-26T09:47:01.675Z,7.80
2022-09-26T09:49:28.748Z,5.10
2022-09-26T09:52:25.917Z,6.10
2022-09-26T09:55:25.696Z,9.60
2022-09-26T09:58:33.043Z,7.00
2022-09-26T10:01:12.303Z,4.50
2022-09-26T10:03:50.295Z,5.80
2022-09-26T10:06:45.365Z,5.40
2022-09-26T10:09:41.163Z,5.60
2022-09-26T10:12:33.147Z,5.80
2022-09-26T10:15:27.473Z,7.70
2022-09-26T10:18:25.310Z,4.70
2022-09-26T10:21:12.317Z,4.30
2022-09-26T10:23:47.933Z,4.70
2022-09-26T10:26:35.207Z,4.90
2022-09-26T10:29:21.445Z,4.50
2022-09-26T10:31:56.783Z,4.70
2022-09-26T10:34:38.027Z,3.90
2022-09-26T10:37:29.686Z,5.50
2022-09-26T10:40:44.844Z,5.40
2022-09-26T10:43:33.049Z,3.60
2022-09-26T10:46:19.010Z,4.10
2022-09-26T10:48:54.323Z,4.20
2022-09-26T10:51:50.915Z,4.40
2022-09-26T10:54:40.404Z,4.60
2022-09-26T10:57:18.753Z,4.30
2022-09-26T10:59:49.020Z,3.70
2022-09-26T11:02:25.516Z,3.80
2022-09-26T11:05:20.068Z,3.30
2022-09-26T11:08:19.308Z,3.90
2022-09-26T11:11:15.264Z,4.20
2022-09-26T11:14:04.144Z,5.00
2022-09-26T11:16:56.286Z,2.80
2022-09-26T11:19:54.993Z,5.60
2022-09-26T11:22:44.836Z,5.30
2022-09-26T11:25:47.047Z,3.00
2022-09-26T11:28:52.082Z,2.10
2022-09-26T11:31:44.102Z,3.00
2022-09-26T11:34:42.014Z,4.20
2022-09-26T11:37:32.197Z,2.60
2022-09-26T11:40:23.974Z,4.40
2022-09-26T11:43:34.459Z,3.30
2022-09-26T11:46:47.547Z,3.30
2022-09-26T11:50:12.326Z,3.40
2022-09-26T11:53:16.014Z,3.40
2022-09-26T11:56:02.366Z,3.80
2022-09-26T11:59:28.006Z,3.00
2022-09-26T12:02:35.428Z,3.80
2022-09-26T12:05:17.076Z,5.40
2022-09-26T12:08:11.464Z,3.80
2022-09-26T12:10:50.377Z,2.80
2022-09-26T12:14:12.067Z,3.70
2022-09-26T12:16:58.796Z,4.70
2022-09-26T12:19:40.422Z,3.50
2022-09-26T12:22:57.850Z,3.30
2022-09-26T12:25:56.100Z,2.40
2022-09-26T12:29:08.229Z,3.80
2022-09-26T12:32:21.488Z,4.50
2022-09-26T12:35:20.252Z,3.50
2022-09-26T12:38:32.977Z,2.20
2022-09-26T12:41:44.365Z,4.00
2022-09-26T12:44:57.890Z,2.40
2022-09-26T12:47:52.364Z,4.30
2022-09-26T12:50:31.617Z,3.60
2022-09-26T12:53:32.817Z,4.50
2022-09-26T12:56:18.317Z,2.70
2022-09-26T12:59:07.393Z,5.70
2022-09-26T13:01:44.955Z,4.00
2022-09-26T13:04:39.777Z,6.40
2022-09-26T13:08:00.717Z,3.20
2022-09-26T13:11:07.927Z,3.30
2022-09-26T13:13:40.369Z,3.10
2022-09-26T13:16:25.753Z,4.10
2022-09-26T13:19:11.127Z,4.10
2022-09-26T13:21:50.178Z,3.60
2022-09-26T13:24:43.242Z,2.20
2022-09-26T13:27:27.085Z,3.40
2022-09-26T13:30:17.441Z,5.00
2022-09-26T13:33:05.935Z,5.40
2022-09-26T13:35:43.979Z,5.30
2022-09-26T13:38:55.941Z,3.30
2022-09-26T13:42:16.807Z,7.00
2022-09-26T13:45:04.171Z,4.90
2022-09-26T13:47:52.514Z,5.40
2022-09-26T13:50:24.139Z,5.40
2022-09-26T13:53:08.062Z,6.20
2022-09-26T13:55:36.955Z,5.70
2022-09-26T13:58:21.180Z,4.90
2022-09-26T14:00:49.479Z,6.40
2022-09-26T14:03:17.854Z,4.40
2022-09-26T14:05:44.827Z,5.40
2022-09-26T14:08:39.480Z,2.20
2022-09-26T14:11:12.104Z,5.00
2022-09-26T14:13:38.807Z,4.50
2022-09-26T14:16:27.946Z,7.90
2022-09-26T14:19:09.619Z,6.40
2022-09-26T14:21:38.206Z,6.50
2022-09-26T14:24:20.360Z,3.10
2022-09-26T14:27:11.466Z,5.20
2022-09-26T14:29:46.952Z,3.00
2022-09-26T14:32:30.514Z,5.70
2022-09-26T14:35:03.014Z,5.10
2022-09-26T14:37:42.133Z,7.50
2022-09-26T14:40:51.441Z,3.60
2022-09-26T14:43:22.414Z,3.80
2022-09-26T14:46:05.226Z,5.70
2022-09-26T14:48:40.062Z,5.30
2022-09-26T14:51:16.219Z,5.00
2022-09-26T14:54:14.527Z,5.10
2022-09-26T14:56:50.579Z,5.90
2022-09-26T14:59:29.625Z,5.30
2022-09-26T15:02:14.563Z,6.50
2022-09-26T15:04:45.917Z,5.90
2022-09-26T15:07:25.670Z,7.20
2022-09-26T15:09:59.852Z,2.30
2022-09-26T15:12:44.120Z,5.10
2022-09-26T15:15:44.094Z,5.80
2022-09-26T15:18:26.664Z,6.10
2022-09-26T15:21:17.462Z,10.70
2022-09-26T15:23:54.096Z,7.00
2022-09-26T15:26:30.770Z,5.10
2022-09-26T15:28:59.617Z,5.30
2022-09-26T15:31:37.400Z,2.90
2022-09-26T15:34:17.305Z,4.70
2022-09-26T15:36:49.203Z,5.40
2022-09-26T15:39:43.364Z,5.50
2022-09-26T15:42:55.090Z,4.30
2022-09-26T15:45:50.309Z,4.20
2022-09-26T15:48:26.373Z,5.10
2022-09-26T15:51:17.097Z,6.00
2022-09-26T15:53:59.238Z,5.20
2022-09-26T15:56:43.702Z,4.20
2022-09-26T15:59:26.428Z,4.10
2022-09-26T16:01:54.426Z,7.30
2022-09-26T16:04:32.816Z,7.50
2022-09-26T16:07:05.726Z,7.00
2022-09-26T16:09:40.483Z,7.70
2022-09-26T16:12:16.636Z,8.10
2022-09-26T16:14:51.004Z,9.50
2022-09-26T16:17:35.026Z,6.60
2022-09-26T16:20:22.749Z,4.80
2022-09-26T16:22:51.947Z,5.40
2022-09-26T16:25:18.982Z,5.50
2022-09-26T16:27:49.513Z,4.90
2022-09-26T16:30:28.241Z,7.30
2022-09-26T16:33:32.345Z,4.20
2022-09-26T16:36:09.672Z,7.10
2022-09-26T16:38:37.147Z,5.00
2022-09-26T16:41:56.341Z,4.80
2022-09-26T16:44:27.787Z,6.80
2022-09-26T16:47:02.593Z,6.70
2022-09-26T16:49:47.229Z,10.90
2022-09-26T16:52:30.307Z,11.60
2022-09-26T16:55:01.357Z,8.60
2022-09-26T16:57:33.765Z,4.40
2022-09-26T17:00:34.456Z,4.30
2022-09-26T17:03:02.580Z,7.50
2022-09-26T17:05:30.081Z,6.00
2022-09-26T17:07:57.098Z,4.60
2022-09-26T17:10:26.717Z,6.40
2022-09-26T17:12:54.009Z,6.70
2022-09-26T17:15:29.342Z,5.20
2022-09-26T17:17:58.399Z,5.60
2022-09-26T17:20:25.945Z,4.80
2022-09-26T17:22:54.686Z,5.90
2022-09-26T17:25:25.243Z,4.30
2022-09-26T17:27:58.177Z,4.50
2022-09-26T17:30:25.811Z,7.00
2022-09-26T17:32:54.521Z,10.80
2022-09-26T17:35:27.771Z,9.40
2022-09-26T17:37:56.095Z,9.10
2022-09-26T17:40:32.814Z,5.60
2022-09-26T17:43:02.163Z,5.30
2022-09-26T17:45:40.227Z,4.20
2022-09-26T17:48:29.180Z,7.30
2022-09-26T17:50:57.100Z,7.50
2022-09-26T17:53:32.783Z,6.30
2022-09-26T17:55:59.877Z,5.00
2022-09-26T17:58:27.118Z,5.60
2022-09-26T18:00:53.965Z,5.50
2022-09-26T18:03:30.099Z,8.70
2022-09-26T18:05:57.117Z,7.10
2022-09-26T18:08:31.103Z,7.70
2022-09-26T18:11:04.694Z,9.80
2022-09-26T18:13:43.239Z,6.50
2022-09-26T18:16:11.631Z,7.80
2022-09-26T18:18:38.624Z,8.00
2022-09-26T18:21:10.595Z,4.70
2022-09-26T18:24:20.110Z,5.30
2022-09-26T18:27:08.975Z,5.70
2022-09-26T18:29:41.760Z,3.80
2022-09-26T18:32:50.860Z,7.70
2022-09-26T18:35:25.843Z,4.60
2022-09-26T18:38:00.153Z,6.90
2022-09-26T18:40:30.681Z,5.60
2022-09-26T18:42:58.604Z,8.50
2022-09-26T18:45:38.443Z,6.10
2022-09-26T18:48:12.917Z,6.20
2022-09-26T18:50:40.358Z,6.20
2022-09-26T18:53:15.801Z,7.20
2022-09-26T18:56:01.182Z,7.90
2022-09-26T18:58:29.474Z,6.30
2022-09-26T19:01:07.232Z,5.50
2022-09-26T19:03:39.839Z,4.40
2022-09-26T19:06:16.124Z,4.50
2022-09-26T19:08:53.170Z,5.00
2022-09-26T19:11:23.161Z,4.70
2022-09-26T19:13:58.619Z,4.20
2022-09-26T19:16:26.179Z,5.40
2022-09-26T19:18:53.088Z,5.40
2022-09-26T19:21:41.922Z,6.10
2022-09-26T19:24:22.544Z,6.70
2022-09-26T19:27:06.049Z,4.10
2022-09-26T19:29:39.337Z,6.80
2022-09-26T19:32:10.741Z,5.50
2022-09-26T19:34:38.357Z,4.30
2022-09-26T19:37:06.033Z,6.70
2022-09-26T19:39:33.065Z,5.20
2022-09-26T19:41:59.971Z,6.60
2022-09-26T19:44:26.816Z,5.70
2022-09-26T19:46:53.705Z,5.00
2022-09-26T19:49:29.997Z,4.40
2022-09-26T19:51:56.869Z,5.70
2022-09-26T19:54:24.087Z,6.00
2022-09-26T19:56:51.047Z,4.00
2022-09-26T19:59:17.881Z,3.80
2022-09-26T20:01:48.557Z,7.90
2022-09-26T20:04:19.178Z,4.90
2022-09-26T20:06:47.158Z,7.00
2022-09-26T20:09:18.069Z,7.60
2022-09-26T20:11:45.356Z,7.10
2022-09-26T20:14:25.025Z,7.60
2022-09-26T20:17:02.363Z,6.70
2022-09-26T20:19:39.996Z,7.00
2022-09-26T20:22:15.037Z,8.40
2022-09-26T20:24:43.995Z,7.60
2022-09-26T20:27:21.657Z,7.60
2022-09-26T20:30:08.911Z,7.70
2022-09-26T20:32:36.879Z,7.30
2022-09-26T20:35:05.444Z,7.80
2022-09-26T20:37:38.747Z,7.50
2022-09-26T20:40:24.377Z,9.20
2022-09-26T20:42:59.431Z,11.40
2022-09-26T20:45:34.648Z,11.00
2022-09-26T20:48:01.990Z,8.30
2022-09-26T20:50:34.496Z,8.90
2022-09-26T20:53:02.057Z,9.70
2022-09-26T20:55:32.538Z,7.80
2022-09-26T20:57:59.859Z,8.30
2022-09-26T21:00:26.680Z,9.90
2022-09-26T21:02:57.395Z,11.10
2022-09-26T21:05:29.199Z,8.60
2022-09-26T21:07:59.710Z,9.30
2022-09-26T21:10:30.752Z,7.10
2022-09-26T21:12:59.494Z,10.90
2022-09-26T21:15:31.002Z,5.60
2022-09-26T21:17:59.695Z,11.00
2022-09-26T21:20:30.862Z,10.60
2022-09-26T21:23:19.904Z,11.60
2022-09-26T21:25:47.044Z,11.80
2022-09-26T21:28:28.556Z,10.20
2022-09-26T21:31:03.072Z,9.50
2022-09-26T21:33:30.112Z,14.50
2022-09-26T21:35:58.113Z,14.60
2022-09-26T21:38:26.816Z,12.30
2022-09-26T21:40:58.556Z,12.90
2022-09-26T21:43:31.891Z,10.20
2022-09-26T21:45:58.778Z,9.60
2022-09-26T21:48:26.222Z,15.10
2022-09-26T21:50:58.558Z,15.60
2022-09-26T21:53:53.757Z,11.70
2022-09-26T21:56:28.951Z,14.10
2022-09-26T21:58:56.852Z,13.70
2022-09-26T22:01:24.232Z,16.50
2022-09-26T22:03:51.223Z,12.30
2022-09-26T22:06:17.968Z,12.50
2022-09-26T22:08:44.759Z,13.90
2022-09-26T22:11:12.094Z,20.20
2022-09-26T22:13:39.201Z,16.20
2022-09-26T22:16:13.247Z,16.60
2022-09-26T22:18:41.754Z,16.80
2022-09-26T22:21:11.153Z,18.00
2022-09-26T22:23:38.954Z,19.50
2022-09-26T22:26:07.614Z,20.90
2022-09-26T22:28:35.345Z,18.60
2022-09-26T22:31:05.170Z,19.10
2022-09-26T22:33:33.783Z,20.70
2022-09-26T22:36:01.360Z,22.20
2022-09-26T22:38:28.217Z,25.20
2022-09-26T22:41:01.731Z,22.60
2022-09-26T22:43:30.027Z,22.80
2022-09-26T22:46:05.998Z,21.90
2022-09-26T22:48:42.560Z,14.80
2022-09-26T22:51:10.282Z,23.10
2022-09-26T22:53:40.112Z,16.70
2022-09-26T22:56:11.552Z,13.40
2022-09-26T22:58:52.076Z,15.70
2022-09-26T23:01:27.345Z,15.80
2022-09-26T23:03:55.142Z,12.60
2022-09-26T23:06:23.414Z,12.10
2022-09-26T23:08:51.123Z,7.90
2022-09-26T23:11:19.550Z,6.00
2022-09-26T23:13:47.498Z,9.20
2022-09-26T23:16:17.816Z,8.40
2022-09-26T23:18:45.361Z,5.20
2022-09-26T23:21:23.018Z,6.50
2022-09-26T23:23:55.027Z,6.10
2022-09-26T23:26:26.198Z,5.40
2022-09-26T23:28:55.910Z,6.20
2022-09-26T23:31:25.197Z,7.10
2022-09-26T23:33:54.004Z,8.30
2022-09-26T23:36:21.857Z,8.50
2022-09-26T23:38:49.931Z,8.70
2022-09-26T23:41:17.024Z,6.30
2022-09-26T23:43:46.279Z,7.30
2022-09-26T23:46:13.207Z,6.50
2022-09-26T23:48:40.626Z,4.00
2022-09-26T23:51:09.189Z,6.30
2022-09-26T23:53:36.261Z,6.60
2022-09-26T23:56:12.447Z,8.20
2022-09-26T23:58:40.551Z,5.30
